createdAt,value
2023-04-29T00:02:06.369Z,18.85
2023-04-29T00:04:52.022Z,20.35
2023-04-29T00:07:37.940Z,18.38
2023-04-29T00:10:23.184Z,17.48
2023-04-29T00:13:08.747Z,17.20
2023-04-29T00:15:54.322Z,15.43
2023-04-29T00:18:39.653Z,16.05
2023-04-29T00:21:27.463Z,16.25
2023-04-29T00:24:12.453Z,16.75
2023-04-29T00:26:58.381Z,16.92
2023-04-29T00:29:44.009Z,16.80
2023-04-29T00:32:29.537Z,15.52
2023-04-29T00:35:14.842Z,16.20
2023-04-29T00:38:00.148Z,16.55
2023-04-29T00:40:45.982Z,15.95
2023-04-29T00:43:32.049Z,14.40
2023-04-29T00:46:18.099Z,13.15
2023-04-29T00:49:03.821Z,14.65
2023-04-29T00:51:50.169Z,14.23
2023-04-29T00:54:35.609Z,14.27
2023-04-29T00:57:22.214Z,12.73
2023-04-29T01:00:10.149Z,11.63
2023-04-29T01:02:57.063Z,11.95
2023-04-29T01:05:44.137Z,11.57
2023-04-29T01:08:39.937Z,11.02
2023-04-29T01:11:33.552Z,11.20
2023-04-29T01:14:19.043Z,12.23
2023-04-29T01:17:15.624Z,15.57
2023-04-29T01:20:01.785Z,14.35
2023-04-29T01:22:47.519Z,15.60
2023-04-29T01:25:33.000Z,14.68
2023-04-29T01:28:50.840Z,15.43
2023-04-29T01:31:47.395Z,14.43
2023-04-29T01:34:55.179Z,13.75
2023-04-29T01:37:41.192Z,14.55
2023-04-29T01:40:34.089Z,15.18
2023-04-29T01:43:30.793Z,14.27
2023-04-29T01:46:19.664Z,14.70
2023-04-29T01:49:05.128Z,15.00
2023-04-29T01:51:50.746Z,14.30
2023-04-29T01:54:36.409Z,15.35
2023-04-29T01:57:22.141Z,15.07
2023-04-29T02:00:33.968Z,14.23
2023-04-29T02:03:19.958Z,14.15
2023-04-29T02:06:09.514Z,14.85
2023-04-29T02:08:55.578Z,14.38
2023-04-29T02:11:40.860Z,15.50
2023-04-29T02:14:26.472Z,15.55
2023-04-29T02:17:11.807Z,14.07
2023-04-29T02:19:59.584Z,15.95
2023-04-29T02:22:44.916Z,15.25
2023-04-29T02:25:30.664Z,14.65
2023-04-29T02:28:18.120Z,14.10
2023-04-29T02:31:03.338Z,15.95
2023-04-29T02:33:49.184Z,14.50
2023-04-29T02:36:34.835Z,15.00
2023-04-29T02:39:20.599Z,15.63
2023-04-29T02:42:06.374Z,14.70
2023-04-29T02:44:51.681Z,15.20
2023-04-29T02:47:37.159Z,14.45
2023-04-29T02:50:22.486Z,14.73
2023-04-29T02:53:08.460Z,14.27
2023-04-29T02:55:54.232Z,14.00
2023-04-29T02:58:42.035Z,15.38
2023-04-29T03:01:27.415Z,14.55
2023-04-29T03:04:13.051Z,15.52
2023-04-29T03:06:58.863Z,15.52
2023-04-29T03:09:45.863Z,13.95
2023-04-29T03:12:31.367Z,16.13
2023-04-29T03:15:17.050Z,15.75
2023-04-29T03:18:04.865Z,15.98
2023-04-29T03:20:52.177Z,15.40
2023-04-29T03:23:39.355Z,16.63
2023-04-29T03:26:25.657Z,16.23
2023-04-29T03:29:11.419Z,15.50
2023-04-29T03:31:57.466Z,16.45
2023-04-29T03:34:43.166Z,15.60
2023-04-29T03:38:07.277Z,16.05
2023-04-29T03:40:54.201Z,15.63
2023-04-29T03:43:39.574Z,15.63
2023-04-29T03:46:24.912Z,15.88
2023-04-29T03:49:10.441Z,15.40
2023-04-29T03:51:55.750Z,16.05
2023-04-29T03:54:42.621Z,16.05
2023-04-29T03:57:28.104Z,15.88
2023-04-29T04:00:14.444Z,16.17
2023-04-29T04:03:05.488Z,16.95
2023-04-29T04:05:52.706Z,16.45
2023-04-29T04:08:38.006Z,14.35
2023-04-29T04:11:30.942Z,16.42
2023-04-29T04:14:19.347Z,16.00
2023-04-29T04:17:04.800Z,14.38
2023-04-29T04:19:50.892Z,16.92
2023-04-29T04:22:36.558Z,15.40
2023-04-29T04:25:38.943Z,15.25
2023-04-29T04:28:47.291Z,14.52
2023-04-29T04:31:46.318Z,15.68
2023-04-29T04:34:33.683Z,15.25
2023-04-29T04:37:20.623Z,14.52
2023-04-29T04:40:11.942Z,16.00
2023-04-29T04:43:13.978Z,14.68
2023-04-29T04:46:00.393Z,15.02
2023-04-29T04:48:46.703Z,15.02
2023-04-29T04:51:33.208Z,15.05
2023-04-29T04:54:18.608Z,15.73
2023-04-29T04:57:05.954Z,15.38
2023-04-29T04:59:51.341Z,15.55
2023-04-29T05:02:37.990Z,14.93
2023-04-29T05:05:23.503Z,14.15
2023-04-29T05:08:09.405Z,13.73
2023-04-29T05:11:00.287Z,13.13
2023-04-29T05:13:45.576Z,14.13
2023-04-29T05:16:31.306Z,15.40
2023-04-29T05:19:17.297Z,14.30
2023-04-29T05:22:04.168Z,13.88
2023-04-29T05:24:49.516Z,15.18
2023-04-29T05:27:35.573Z,15.05
2023-04-29T05:30:23.014Z,15.40
2023-04-29T05:33:08.446Z,14.30
2023-04-29T05:35:53.885Z,13.18
2023-04-29T05:38:39.221Z,13.90
2023-04-29T05:41:27.356Z,13.38
2023-04-29T05:44:29.388Z,12.85
2023-04-29T05:47:14.680Z,12.70
2023-04-29T05:50:00.720Z,12.60
2023-04-29T05:52:47.381Z,12.55
2023-04-29T05:55:32.637Z,12.13
2023-04-29T05:58:18.122Z,12.13
2023-04-29T06:01:03.621Z,11.57
2023-04-29T06:03:50.348Z,12.02
2023-04-29T06:06:56.956Z,11.10
2023-04-29T06:10:07.505Z,11.45
2023-04-29T06:12:52.880Z,11.38
2023-04-29T06:15:38.528Z,10.57
2023-04-29T06:18:24.028Z,10.50
2023-04-29T06:21:09.400Z,10.68
2023-04-29T06:23:55.340Z,10.07
2023-04-29T06:26:40.922Z,10.30
2023-04-29T06:29:26.709Z,10.20
2023-04-29T06:32:13.994Z,10.55
2023-04-29T06:35:00.059Z,10.23
2023-04-29T06:38:23.696Z,9.85
2023-04-29T06:41:41.055Z,9.85
2023-04-29T06:45:02.120Z,9.50
2023-04-29T06:47:59.876Z,8.73
2023-04-29T06:50:57.894Z,8.80
2023-04-29T06:53:43.257Z,9.00
2023-04-29T06:56:29.825Z,8.52
2023-04-29T06:59:15.776Z,8.55
2023-04-29T07:02:01.084Z,7.50
2023-04-29T07:04:46.507Z,8.10
2023-04-29T07:07:34.496Z,7.95
2023-04-29T07:10:19.715Z,7.95
2023-04-29T07:13:06.103Z,8.63
2023-04-29T07:15:51.636Z,8.30
2023-04-29T07:18:37.033Z,7.25
2023-04-29T07:21:22.703Z,8.38
2023-04-29T07:24:08.103Z,7.25
2023-04-29T07:26:53.629Z,7.20
2023-04-29T07:29:40.096Z,7.10
2023-04-29T07:32:25.224Z,6.68
2023-04-29T07:35:10.714Z,6.90
2023-04-29T07:37:56.199Z,6.63
2023-04-29T07:40:42.178Z,6.63
2023-04-29T07:43:27.461Z,6.97
2023-04-29T07:46:12.819Z,7.88
2023-04-29T07:48:58.341Z,6.55
2023-04-29T07:51:44.052Z,6.30
2023-04-29T07:54:29.456Z,6.35
2023-04-29T07:57:15.339Z,7.35
2023-04-29T08:00:00.863Z,6.63
2023-04-29T08:02:46.173Z,6.05
2023-04-29T08:05:34.280Z,6.13
2023-04-29T08:08:20.039Z,6.15
2023-04-29T08:11:06.577Z,6.57
2023-04-29T08:13:52.293Z,5.95
2023-04-29T08:16:37.744Z,5.70
2023-04-29T08:19:23.458Z,5.70
2023-04-29T08:22:11.103Z,5.82
2023-04-29T08:24:56.549Z,5.80
2023-04-29T08:27:43.592Z,6.18
2023-04-29T08:30:28.941Z,6.00
2023-04-29T08:33:14.651Z,5.95
2023-04-29T08:36:00.316Z,6.00
2023-04-29T08:38:46.264Z,5.82
2023-04-29T08:41:33.287Z,6.30
2023-04-29T08:44:18.619Z,7.10
2023-04-29T08:47:04.795Z,6.85
2023-04-29T08:49:50.011Z,6.95
2023-04-29T08:52:36.013Z,6.88
2023-04-29T08:55:20.986Z,6.25
2023-04-29T08:58:07.386Z,6.15
2023-04-29T09:00:52.768Z,6.55
2023-04-29T09:03:52.837Z,6.72
2023-04-29T09:06:38.571Z,6.15
2023-04-29T09:09:25.047Z,6.35
2023-04-29T09:12:10.245Z,6.15
2023-04-29T09:14:59.003Z,6.63
2023-04-29T09:17:46.728Z,6.10
2023-04-29T09:20:32.073Z,6.70
2023-04-29T09:23:17.602Z,6.63
2023-04-29T09:26:02.975Z,6.22
2023-04-29T09:29:05.526Z,7.05
2023-04-29T09:34:40.969Z,6.65
2023-04-29T09:37:27.981Z,6.80
2023-04-29T09:40:36.455Z,6.60
2023-04-29T09:43:26.269Z,6.57
2023-04-29T09:46:16.018Z,6.75
2023-04-29T09:49:02.029Z,7.20
2023-04-29T09:52:01.823Z,6.63
2023-04-29T09:54:47.387Z,6.32
2023-04-29T09:57:44.252Z,7.43
2023-04-29T10:00:33.345Z,6.60
2023-04-29T10:03:22.027Z,7.15
2023-04-29T10:06:07.729Z,6.70
2023-04-29T10:08:53.213Z,5.85
2023-04-29T10:11:40.709Z,6.50
2023-04-29T10:14:27.656Z,6.80
2023-04-29T10:17:29.041Z,6.85
2023-04-29T10:20:16.466Z,5.75
2023-04-29T10:23:03.447Z,5.75
2023-04-29T10:25:51.412Z,6.43
2023-04-29T10:28:39.608Z,6.47
2023-04-29T10:31:28.449Z,6.03
2023-04-29T10:34:16.639Z,5.70
2023-04-29T10:37:02.797Z,6.35
2023-04-29T10:39:59.278Z,5.38
2023-04-29T10:42:48.369Z,5.82
2023-04-29T10:45:37.744Z,6.32
2023-04-29T10:48:25.418Z,5.43
2023-04-29T10:51:10.721Z,5.15
2023-04-29T10:54:00.386Z,5.28
2023-04-29T10:56:54.061Z,5.85
2023-04-29T10:59:39.579Z,5.82
2023-04-29T11:02:26.385Z,6.40
2023-04-29T11:05:15.778Z,5.70
2023-04-29T11:08:43.316Z,5.07
2023-04-29T11:11:40.561Z,5.03
2023-04-29T11:14:41.721Z,5.18
2023-04-29T11:17:28.478Z,6.28
2023-04-29T11:20:14.616Z,5.38
2023-04-29T11:23:01.766Z,5.47
2023-04-29T11:25:47.113Z,5.85
2023-04-29T11:28:33.803Z,5.70
2023-04-29T11:31:19.276Z,5.30
2023-04-29T11:34:06.853Z,5.88
2023-04-29T11:36:52.813Z,5.70
2023-04-29T11:39:38.001Z,5.70
2023-04-29T11:42:23.998Z,5.28
2023-04-29T11:45:09.567Z,5.93
2023-04-29T11:47:56.092Z,5.57
2023-04-29T11:50:42.381Z,5.65
2023-04-29T11:53:28.060Z,6.38
2023-04-29T11:56:13.299Z,5.10
2023-04-29T11:58:59.024Z,5.40
2023-04-29T12:01:44.346Z,4.68
2023-04-29T12:04:29.772Z,5.28
2023-04-29T12:07:18.861Z,5.30
2023-04-29T12:10:07.695Z,5.38
2023-04-29T12:12:53.511Z,4.40
2023-04-29T12:15:40.367Z,4.88
2023-04-29T12:18:27.628Z,5.07
2023-04-29T12:21:13.514Z,4.30
2023-04-29T12:24:00.546Z,5.25
2023-04-29T12:26:46.819Z,5.03
2023-04-29T12:29:33.170Z,5.38
2023-04-29T12:32:21.944Z,5.32
2023-04-29T12:35:16.456Z,4.38
2023-04-29T12:38:02.675Z,4.38
2023-04-29T12:40:48.234Z,4.60
2023-04-29T12:43:33.871Z,5.00
2023-04-29T12:46:21.332Z,4.22
2023-04-29T12:49:08.030Z,3.92
2023-04-29T12:51:53.664Z,3.30
2023-04-29T12:54:43.974Z,3.17
2023-04-29T12:57:29.429Z,2.50
2023-04-29T13:00:15.461Z,2.75
2023-04-29T13:03:01.615Z,2.90
2023-04-29T13:05:51.077Z,2.83
2023-04-29T13:08:36.334Z,2.40
2023-04-29T13:11:22.070Z,2.78
2023-04-29T13:14:07.264Z,3.60
2023-04-29T13:16:52.576Z,3.67
2023-04-29T13:19:50.244Z,2.90
2023-04-29T13:22:37.385Z,2.80
2023-04-29T13:25:22.557Z,3.30
2023-04-29T13:28:08.183Z,3.10
2023-04-29T13:30:54.331Z,2.80
2023-04-29T13:33:40.219Z,2.85
2023-04-29T13:36:27.493Z,2.90
2023-04-29T13:39:14.464Z,2.38
2023-04-29T13:42:00.491Z,2.85
2023-04-29T13:44:52.557Z,2.78
2023-04-29T13:51:13.888Z,2.58
2023-04-29T13:57:05.892Z,2.80
2023-04-29T13:59:50.696Z,2.03
2023-04-29T14:02:39.097Z,2.20
2023-04-29T14:05:24.904Z,2.00
2023-04-29T14:08:10.181Z,1.73
2023-04-29T14:10:55.626Z,1.58
2023-04-29T14:13:41.400Z,1.80
2023-04-29T14:16:27.841Z,1.38
2023-04-29T14:19:13.927Z,1.40
2023-04-29T14:21:59.251Z,1.33
2023-04-29T14:24:44.621Z,1.75
2023-04-29T14:27:30.400Z,2.03
2023-04-29T14:30:15.714Z,1.95
2023-04-29T14:33:01.362Z,1.50
2023-04-29T14:35:46.956Z,1.52
2023-04-29T14:38:32.447Z,1.90
2023-04-29T14:41:17.840Z,1.65
2023-04-29T14:44:03.476Z,1.70
2023-04-29T14:46:49.159Z,1.73
2023-04-29T14:49:34.481Z,1.55
2023-04-29T14:52:19.773Z,1.95
2023-04-29T14:55:05.683Z,1.40
2023-04-29T14:57:50.682Z,1.40
2023-04-29T15:00:36.430Z,1.50
2023-04-29T15:03:23.139Z,1.45
2023-04-29T15:06:08.653Z,1.10
2023-04-29T15:08:54.118Z,1.25
2023-04-29T15:11:39.551Z,1.33
2023-04-29T15:14:24.866Z,1.17
2023-04-29T15:17:10.351Z,1.20
2023-04-29T15:19:55.817Z,1.02
2023-04-29T15:22:41.332Z,1.20
2023-04-29T15:25:27.628Z,1.30
2023-04-29T15:28:13.027Z,1.20
2023-04-29T15:30:59.848Z,1.30
2023-04-29T15:33:45.362Z,1.10
2023-04-29T15:36:33.322Z,1.10
2023-04-29T15:39:18.351Z,1.00
2023-04-29T15:42:03.984Z,0.98
2023-04-29T15:44:49.331Z,1.10
2023-04-29T15:47:35.157Z,1.20
2023-04-29T15:50:20.968Z,1.13
2023-04-29T15:53:06.086Z,1.15
2023-04-29T15:55:51.727Z,1.10
2023-04-29T15:58:36.922Z,1.10
2023-04-29T16:01:22.532Z,1.40
2023-04-29T16:04:08.262Z,1.38
2023-04-29T16:06:54.167Z,1.20
2023-04-29T16:09:39.601Z,1.20
2023-04-29T16:12:24.957Z,1.40
2023-04-29T16:15:10.708Z,1.50
2023-04-29T16:17:56.417Z,1.30
2023-04-29T16:20:41.957Z,1.17
2023-04-29T16:23:27.913Z,1.20
2023-04-29T16:26:13.771Z,2.40
2023-04-29T16:28:59.815Z,2.85
2023-04-29T16:31:45.525Z,2.40
2023-04-29T16:34:30.913Z,2.40
2023-04-29T16:37:16.231Z,2.88
2023-04-29T16:40:02.108Z,2.70
2023-04-29T16:42:47.353Z,4.38
2023-04-29T16:45:33.109Z,4.45
2023-04-29T16:48:18.871Z,4.20
2023-04-29T16:51:04.482Z,3.42
2023-04-29T16:53:49.901Z,3.83
2023-04-29T16:56:35.435Z,2.90
2023-04-29T17:10:29.160Z,3.03
2023-04-29T17:13:14.615Z,2.78
2023-04-29T17:16:00.138Z,2.92
2023-04-29T17:18:45.537Z,3.40
2023-04-29T17:21:32.403Z,3.13
2023-04-29T17:24:18.177Z,3.20
2023-04-29T17:27:03.474Z,3.40
2023-04-29T17:29:49.348Z,3.15
2023-04-29T17:32:39.044Z,3.05
2023-04-29T17:35:24.633Z,2.70
2023-04-29T17:38:11.952Z,3.25
2023-04-29T17:40:57.379Z,3.13
2023-04-29T17:43:42.866Z,2.90
2023-04-29T17:46:28.337Z,2.88
2023-04-29T17:49:13.748Z,3.78
2023-04-29T17:52:00.247Z,3.65
2023-04-29T17:54:45.759Z,3.15
2023-04-29T17:57:31.886Z,3.35
2023-04-29T18:00:18.333Z,3.67
2023-04-29T18:03:04.791Z,3.40
2023-04-29T18:05:50.390Z,3.50
2023-04-29T18:08:36.497Z,3.97
2023-04-29T18:11:21.766Z,3.85
2023-04-29T18:14:07.019Z,3.67
2023-04-29T18:16:52.361Z,4.20
2023-04-29T18:19:37.664Z,4.00
2023-04-29T18:22:23.275Z,3.92
2023-04-29T18:25:09.603Z,4.40
2023-04-29T18:28:07.527Z,5.15
2023-04-29T18:31:01.108Z,3.90
2023-04-29T18:33:46.485Z,4.30
2023-04-29T18:36:32.021Z,4.43
2023-04-29T18:39:18.006Z,4.78
2023-04-29T18:42:06.087Z,4.25
2023-04-29T18:44:51.677Z,4.75
2023-04-29T18:47:37.501Z,4.78
2023-04-29T18:50:23.795Z,4.90
2023-04-29T18:53:09.174Z,4.90
2023-04-29T18:55:54.624Z,4.97
2023-04-29T18:58:39.733Z,4.72
2023-04-29T19:01:25.502Z,5.00
2023-04-29T19:04:11.237Z,5.38
2023-04-29T19:06:57.671Z,4.63
2023-04-29T19:09:42.884Z,5.80
2023-04-29T19:12:28.512Z,5.28
2023-04-29T19:15:14.142Z,5.18
2023-04-29T19:17:59.656Z,5.47
2023-04-29T19:20:44.984Z,4.78
2023-04-29T19:23:30.553Z,6.15
2023-04-29T19:26:15.978Z,6.18
2023-04-29T19:29:01.569Z,5.47
2023-04-29T19:31:47.350Z,5.78
2023-04-29T19:34:32.544Z,5.35
2023-04-29T19:37:18.093Z,5.20
2023-04-29T19:40:04.217Z,6.15
2023-04-29T19:42:49.429Z,6.00
2023-04-29T19:45:35.647Z,6.47
2023-04-29T19:48:20.971Z,6.05
2023-04-29T19:51:07.214Z,6.05
2023-04-29T19:53:59.953Z,6.93
2023-04-29T19:56:45.053Z,6.85
2023-04-29T19:59:30.363Z,6.28
2023-04-29T20:02:15.903Z,6.78
2023-04-29T20:05:01.181Z,6.13
2023-04-29T20:07:46.729Z,5.90
2023-04-29T20:10:32.130Z,5.97
2023-04-29T20:13:17.574Z,6.95
2023-04-29T20:16:02.995Z,6.35
2023-04-29T20:18:48.551Z,6.63
2023-04-29T20:21:33.697Z,6.00
2023-04-29T20:24:18.998Z,6.10
2023-04-29T20:27:04.638Z,6.25
2023-04-29T20:29:50.072Z,5.90
2023-04-29T20:32:35.906Z,6.00
2023-04-29T20:35:21.280Z,6.60
2023-04-29T20:38:07.234Z,6.00
2023-04-29T20:40:53.656Z,6.80
2023-04-29T20:43:39.104Z,6.75
2023-04-29T20:46:26.047Z,6.32
2023-04-29T20:49:13.178Z,5.88
2023-04-29T20:51:59.553Z,6.00
2023-04-29T20:54:45.115Z,6.45
2023-04-29T20:57:32.454Z,6.15
2023-04-29T21:00:17.817Z,6.35
2023-04-29T21:03:03.161Z,6.05
2023-04-29T21:05:56.283Z,6.18
2023-04-29T21:08:41.606Z,6.78
2023-04-29T21:11:26.796Z,6.53
2023-04-29T21:14:13.242Z,6.20
2023-04-29T21:16:58.964Z,6.85
2023-04-29T21:19:44.109Z,7.20
2023-04-29T21:22:29.629Z,6.57
2023-04-29T21:25:15.124Z,6.50
2023-04-29T21:28:00.682Z,7.10
2023-04-29T21:30:46.120Z,7.72
2023-04-29T21:33:31.691Z,6.85
2023-04-29T21:36:17.421Z,7.72
2023-04-29T21:39:02.610Z,7.85
2023-04-29T21:41:48.039Z,7.47
2023-04-29T21:44:34.836Z,7.57
2023-04-29T21:47:20.530Z,7.70
2023-04-29T21:50:07.511Z,7.75
2023-04-29T21:52:52.794Z,9.27
2023-04-29T21:55:38.774Z,7.43
2023-04-29T21:58:24.321Z,8.60
2023-04-29T22:01:26.757Z,8.45
2023-04-29T22:04:12.185Z,8.25
2023-04-29T22:06:58.731Z,8.10
2023-04-29T22:09:49.485Z,8.25
2023-04-29T22:12:34.582Z,7.75
2023-04-29T22:15:27.993Z,9.13
2023-04-29T22:18:14.298Z,7.80
2023-04-29T22:20:59.738Z,7.82
2023-04-29T22:23:45.500Z,8.57
2023-04-29T22:26:31.099Z,8.60
2023-04-29T22:29:16.709Z,8.93
2023-04-29T22:32:02.281Z,9.15
2023-04-29T22:34:47.432Z,9.07
2023-04-29T22:37:32.934Z,8.93
2023-04-29T22:40:18.467Z,8.63
2023-04-29T22:43:04.051Z,8.75
2023-04-29T22:45:56.030Z,8.35
2023-04-29T22:48:41.744Z,9.07
2023-04-29T22:51:26.998Z,8.48
2023-04-29T22:54:12.597Z,8.63
2023-04-29T22:56:58.167Z,8.50
2023-04-29T22:59:43.439Z,8.60
2023-04-29T23:02:29.470Z,8.90
2023-04-29T23:05:15.551Z,8.23
2023-04-29T23:08:01.297Z,9.00
2023-04-29T23:10:49.940Z,8.55
2023-04-29T23:13:34.946Z,9.57
2023-04-29T23:16:20.847Z,9.32
2023-04-29T23:19:06.385Z,8.38
2023-04-29T23:21:51.514Z,8.20
2023-04-29T23:24:37.739Z,7.85
2023-04-29T23:27:22.769Z,7.57
2023-04-29T23:30:09.063Z,6.50
2023-04-29T23:32:54.772Z,6.00
2023-04-29T23:35:40.246Z,7.50
2023-04-29T23:38:25.686Z,9.07
2023-04-29T23:41:10.684Z,9.05
2023-04-29T23:44:01.030Z,7.68
2023-04-29T23:46:46.275Z,8.15
2023-04-29T23:49:31.775Z,8.80
2023-04-29T23:52:17.251Z,9.15
2023-04-29T23:55:03.607Z,7.40
2023-04-29T23:57:48.668Z,7.70
